LGPZ/PVK METAR and TAF weather

Enter ICAO airport designator
Station Type Date Time Source
LGPZ METAR 2020/12/05 05:20 UTC NOAA

LGPZ 050520Z 05004KT 9999 FEW025 11/10 Q1014


Station Type Date Time Source
LGPZ Decoded METAR 2020/12/05 05:20 UTC NOAA

Aktion Airport , Greece (LGPZ) 38-37N 020-46E 4M
Dec 05, 2020 - 12:20 AM EST / 2020.12.05 0520 UTC
Wind: from the NE (050 degrees) at 5 MPH (4 KT):0
Visibility: greater than 7 mile(s):0
Sky conditions: mostly clear
Temperature: 51 F (11 C)
Dew Point: 50 F (10 C)
Relative Humidity: 93%
Pressure (altimeter): 29.94 in. Hg (1014 hPa)
ob: LGPZ 050520Z 05004KT 9999 FEW025 11/10 Q1014
cycle: 5

Station Type Date Time Source
LGPZ TAF 2020/12/05 06:12 UTC NOAA

TAF TAF LGPZ 050500Z 0506/0606 06010KT 9999 FEW025 SCT080

Example: see airport list